Stations météo

réclame
Mon MeteoGroup
Aix en Provence, France (7654): Température de l'air & dewpoint: 18.05.2019 03:00:00 - 24.05.2019 03:00:00 (CEST)Aix en Provence, France (7654): Vitesse du vent & gusts: 18.05.2019 03:00:00 - 24.05.2019 03:00:00 (CEST)Aix en Provence, France (7654): Direction du vent: 18.05.2019 03:00:00 - 24.05.2019 03:00:00 (CEST)Aix en Provence, France (7654): Quantités de précipitations: 18.05.2019 03:00:00 - 24.05.2019 03:00:00 (CEST)
Date & Time tt [°C] td [°C] ff [km/h] ff [knt] fx [km/h] fx [knt] dd rr [mm]
24.05.2019 03:00:00 12,5 10,7 0 0 2 1 N 0,0
24.05.2019 02:00:00 12,6 10,5 0 0 2 1 N -
24.05.2019 01:00:00 13,1 9,9 0 0 2 1 N 0,0
24.05.2019 00:00:00 13,7 10,3 0 0 4 2 N 0,0
23.05.2019 23:00:00 14,6 10,8 0 0 4 2 N 0,0
23.05.2019 22:00:00 16,4 10,7 0 0 8 4 N 0,0
23.05.2019 21:00:00 18,1 10,7 5 3 15 8 S 0,0
23.05.2019 20:00:00 20,3 11,5 11 6 22 12 SSW -
23.05.2019 19:00:00 22,1 11,5 11 6 24 13 SW 0,0
23.05.2019 18:00:00 23,6 12,6 11 6 26 14 SW 0,0
23.05.2019 17:00:00 23,5 12,2 13 7 31 17 SSW 0,0
23.05.2019 16:00:00 24,3 13,2 11 6 28 15 SW 0,0
23.05.2019 15:00:00 23,9 10,6 9 5 26 14 WSW 0,0
23.05.2019 14:00:00 23,1 11,5 13 7 24 13 WSW -
23.05.2019 13:00:00 22,7 10,5 8 4 16 9 WNW 0,0
23.05.2019 12:00:00 20,9 11,8 8 4 15 8 WNW 0,0
23.05.2019 11:00:00 20,6 11,8 4 2 15 8 SW 0,0
23.05.2019 10:00:00 18,9 11,2 5 3 16 9 S 0,0
23.05.2019 09:00:00 17,3 12,0 8 4 15 8 SE 0,0
23.05.2019 08:00:00 14,2 11,4 5 3 11 6 ENE -
23.05.2019 07:00:00 12,7 11,1 5 3 15 8 E 0,0
23.05.2019 06:00:00 11,4 10,1 8 4 18 10 ENE 0,0
23.05.2019 05:00:00 10,9 9,3 4 2 8 4 ENE 0,0
23.05.2019 04:00:00 11,4 9,1 0 0 9 5 N 0,0
23.05.2019 03:00:00 12,8 9,4 4 2 8 4 E 0,0
23.05.2019 02:00:00 12,8 10,2 0 0 4 2 N -
23.05.2019 01:00:00 13,5 10,3 2 1 8 4 NE 0,0
23.05.2019 00:00:00 14,4 10,6 4 2 5 3 NNE 0,0
22.05.2019 23:00:00 16,6 10,7 0 0 11 6 N 0,0
22.05.2019 22:00:00 18,3 10,1 5 3 13 7 SW 0,0
22.05.2019 21:00:00 21,5 7,7 5 3 26 14 W 0,0
22.05.2019 20:00:00 23,6 6,8 11 6 22 12 W -
22.05.2019 19:00:00 23,8 10,1 11 6 22 12 SW 0,0
22.05.2019 18:00:00 23,9 9,8 9 5 29 16 SW 0,0
22.05.2019 17:00:00 24,1 10,7 11 6 24 13 SW 0,0
22.05.2019 16:00:00 23,5 10,5 13 7 34 18 SW 0,0
22.05.2019 15:00:00 23,7 12,3 13 7 26 14 SW 0,0
22.05.2019 14:00:00 23,2 11,9 11 6 24 13 SSW -
22.05.2019 13:00:00 22,6 11,9 9 5 22 12 W 0,0
22.05.2019 12:00:00 21,1 10,6 5 3 15 8 W 0,0
22.05.2019 11:00:00 20,3 11,0 4 2 9 5 S 0,0
22.05.2019 10:00:00 18,3 11,4 2 1 11 6 S 0,0
22.05.2019 09:00:00 16,8 10,9 2 1 5 3 SW 0,0
22.05.2019 08:00:00 13,2 10,0 2 1 5 3 SSE -
22.05.2019 07:00:00 11,4 10,0 0 0 4 2 N 0,0
22.05.2019 06:00:00 10,9 9,5 4 2 5 3 NE 0,0
22.05.2019 05:00:00 11,1 9,5 0 0 5 3 N 0,0
22.05.2019 04:00:00 11,5 9,6 0 0 4 2 N 0,0
22.05.2019 03:00:00 12,2 10,1 4 2 4 2 NE 0,0
22.05.2019 02:00:00 12,7 9,9 0 0 5 3 N -
22.05.2019 01:00:00 13,4 9,8 0 0 5 3 N 0,0
22.05.2019 00:00:00 14,4 9,8 0 0 5 3 N 0,0
21.05.2019 23:00:00 15,7 9,8 0 0 5 3 N 0,0
21.05.2019 22:00:00 17,6 9,0 0 0 18 10 N 0,0
21.05.2019 21:00:00 19,6 8,6 9 5 24 13 W 0,0
21.05.2019 20:00:00 22,0 8,5 11 6 37 20 WNW 0,0
21.05.2019 19:00:00 22,9 8,2 18 10 44 24 WNW 0,0
21.05.2019 18:00:00 23,4 8,3 21 11 42 23 WNW 0,0
21.05.2019 17:00:00 23,4 9,4 - - - - - -
21.05.2019 16:00:00 23,5 9,5 22 12 48 26 WNW 0,0
21.05.2019 15:00:00 23,1 10,2 22 12 50 27 WNW 0,0
21.05.2019 14:00:00 22,8 9,9 22 12 46 25 WNW -
21.05.2019 13:00:00 22,0 9,5 18 10 37 20 WNW 0,0
21.05.2019 12:00:00 21,4 11,1 18 10 37 20 NW 0,0
21.05.2019 11:00:00 19,8 10,5 15 8 34 18 WNW 0,0
21.05.2019 10:00:00 18,8 10,6 13 7 34 18 WNW 0,0
21.05.2019 09:00:00 17,2 11,2 15 8 31 17 NW 0,0
21.05.2019 08:00:00 15,0 10,4 8 4 16 9 W -
21.05.2019 07:00:00 12,9 10,3 0 0 9 5 N 0,0
21.05.2019 06:00:00 12,6 9,8 4 2 16 9 WNW 0,0
21.05.2019 05:00:00 12,3 9,8 2 1 13 7 S 0,0
21.05.2019 04:00:00 12,4 9,8 4 2 11 6 S 0,0
21.05.2019 03:00:00 12,7 9,5 2 1 13 7 WNW 0,0
21.05.2019 02:00:00 13,9 9,7 8 4 22 12 W -
21.05.2019 01:00:00 14,3 9,3 5 3 29 16 W 0,0
21.05.2019 00:00:00 15,0 8,9 11 6 24 13 WNW 0,0
20.05.2019 23:00:00 15,7 8,2 8 4 24 13 WNW 0,0
20.05.2019 22:00:00 16,8 8,5 9 5 26 14 WNW 0,0
20.05.2019 21:00:00 18,0 9,1 15 8 29 16 WNW 0,0
20.05.2019 20:00:00 20,3 9,2 15 8 39 21 WNW 0,0
20.05.2019 19:00:00 20,5 6,8 18 10 41 22 NW 0,0
20.05.2019 18:00:00 21,4 8,0 13 7 - - WNW -
20.05.2019 17:00:00 21,3 8,5 22 12 44 24 NW 0,0
20.05.2019 16:00:00 21,2 8,8 26 14 48 26 NW 0,0
20.05.2019 15:00:00 21,1 10,3 21 11 48 26 NW 0,0
20.05.2019 14:00:00 20,6 9,5 16 9 44 24 NW -
20.05.2019 13:00:00 19,2 10,7 18 10 52 28 NW 0,0
20.05.2019 12:00:00 18,7 11,0 21 11 44 24 NW 0,0
20.05.2019 11:00:00 17,5 12,0 16 9 34 18 WNW 0,0
20.05.2019 10:00:00 14,8 12,1 9 5 24 13 WNW 0,0
20.05.2019 09:00:00 13,8 12,2 8 4 15 8 W 0,2
20.05.2019 08:00:00 12,4 11,8 2 1 11 6 W -
20.05.2019 07:00:00 11,9 11,4 0 0 8 4 N 2,0
20.05.2019 06:00:00 11,9 11,4 4 2 9 5 WSW 0,6
20.05.2019 05:00:00 11,8 11,3 4 2 11 6 W 0,0
20.05.2019 04:00:00 11,9 11,4 4 2 11 6 W 0,0
20.05.2019 03:00:00 11,9 11,4 4 2 8 4 W 0,0
20.05.2019 02:00:00 11,9 11,4 4 2 15 8 W -
20.05.2019 01:00:00 11,9 11,4 8 4 16 9 W 0,0
20.05.2019 00:00:00 12,0 11,5 5 3 13 7 W 0,2
19.05.2019 23:00:00 11,9 11,4 5 3 15 8 W 0,4
19.05.2019 22:00:00 11,9 11,3 4 2 15 8 WSW 0,8
19.05.2019 21:00:00 12,1 11,3 8 4 22 12 W 0,6
19.05.2019 20:00:00 12,5 11,7 5 3 15 8 W -
19.05.2019 19:00:00 12,6 11,3 8 4 22 12 W 0,8
19.05.2019 18:00:00 13,1 11,3 8 4 24 13 W 0,4
19.05.2019 17:00:00 14,1 10,1 13 7 28 15 WNW 0,0
19.05.2019 16:00:00 14,3 11,3 11 6 34 18 WNW 0,0
19.05.2019 15:00:00 14,2 9,8 15 8 31 17 WNW 0,0
19.05.2019 14:00:00 14,6 10,2 16 9 34 18 WNW -
19.05.2019 13:00:00 15,0 10,6 13 7 28 15 WNW 0,0
19.05.2019 12:00:00 14,6 10,2 11 6 28 15 WNW 0,0
19.05.2019 11:00:00 13,7 9,5 13 7 26 14 WNW 0,0
19.05.2019 10:00:00 13,8 10,4 9 5 18 10 WNW 0,0
19.05.2019 09:00:00 12,2 10,6 5 3 11 6 WSW 0,0
19.05.2019 08:00:00 11,1 9,8 4 2 9 5 SW -
19.05.2019 07:00:00 10,5 9,9 0 0 2 1 N 0,0
19.05.2019 06:00:00 10,0 9,4 0 0 4 2 N 0,0
19.05.2019 05:00:00 10,2 9,6 0 0 2 1 N 0,0
19.05.2019 04:00:00 10,5 9,7 0 0 2 1 N 0,2
19.05.2019 03:00:00 11,1 10,2 0 0 2 1 N 0,0
19.05.2019 02:00:00 11,9 10,1 2 1 4 2 NNW -
19.05.2019 01:00:00 12,1 9,7 0 0 5 3 N 0,0
19.05.2019 00:00:00 12,5 10,4 2 1 5 3 NNE 0,0
18.05.2019 23:00:00 13,0 11,1 4 2 4 2 NNE 0,0
18.05.2019 22:00:00 12,9 10,3 0 0 5 3 N 0,0
18.05.2019 21:00:00 13,6 10,4 5 3 15 8 N 0,2
18.05.2019 20:00:00 14,7 10,9 4 2 9 5 NE -
18.05.2019 19:00:00 15,4 10,6 4 2 18 10 N 0,0
18.05.2019 18:00:00 18,0 11,8 9 5 22 12 SW 3,0
18.05.2019 17:00:00 15,2 11,6 5 3 28 15 S 2,0
18.05.2019 16:00:00 18,3 8,0 9 5 24 13 S 0,0
18.05.2019 15:00:00 19,7 8,7 8 4 18 10 WNW 0,0
18.05.2019 14:00:00 19,2 7,3 8 4 18 10 WSW -
18.05.2019 13:00:00 17,1 10,2 4 2 13 7 WNW 0,0
18.05.2019 12:00:00 14,9 10,1 4 2 13 7 W 0,0
18.05.2019 11:00:00 13,9 10,5 5 3 13 7 W 0,0
18.05.2019 10:00:00 13,6 10,2 4 2 8 4 W 0,0
18.05.2019 09:00:00 12,4 9,9 4 2 8 4 SE 0,0
18.05.2019 08:00:00 11,2 9,9 0 0 4 2 N -
18.05.2019 07:00:00 10,6 9,7 0 0 4 2 N 0,0
18.05.2019 06:00:00 10,5 9,7 0 0 4 2 N 0,0
18.05.2019 05:00:00 10,7 10,1 0 0 2 1 N 0,0
18.05.2019 04:00:00 10,8 10,0 0 0 5 3 N 0,0
18.05.2019 03:00:00 10,9 9,7 0 0 4 2 N 0,0

tt = Température de l'air
td = dewpoint
ff = Vitesse du vent
fx = gusts
dd = Direction du vent
rr = Quantités de précipitations

stations d'obs. à proximité